Kezdőlap
METAR-TAF:

METAR-TAF

Repülőterek :

Pauls Valley, Oklahoma, Amerikai Egyesült Államok

földrajzi szélesség: 34-42-40N, földrajzi hosszúság: 097-13-24W, magasság: 295 m

Jelenlegi meteorológiai megfigyelések

A jelentés 43 perccel ezelõtt készült, 02:35 UTC
Dél-délkeleti szél 4 kt
Hőmérséklet 27°C
Páratartalom 66%
Légköri nyomás 1018 hPa
Látótávolság: 16.1 km
Derült ég

METAR: KPVJ 220235Z AUTO 15004KT 10SM CLR 27/20 A3005 RMK AO2 T02700203

Idő: 22:18 (03:18 UTC)


TAF: hiányzik

Meteorológiai megfigyelések és előrejelzések több, mint 4000 repülőtéren (METAR és TAF jelentéseket).

A térképen piros és sárga pontok jelzik az elérhető meteorológiai állomásokat.

Mozgassa az egeret a pont fölött, hogy megjelenjen az állomás neve.

Azután kattintson az időjárási megfigyelések és előrejelzések megtekintéséhez.

A térkép megváltoztatása: kattintson a fekete keresztel jelölt zöld gombra ráközelítéshez, a vonallal jelölt zöld gombra távolításhoz, vagy a zöld nyilakra a szomszédos térképek eléréséhez.


METAR-TAF: